Estación Meteorológica Peña el Pijo (Robertgarden) [ 11/17/17 23:49:30 CET ]

Fecha Hora Presion(HPa) Temp (°C) Humedad % Rocio (°C) Viento ( m/s) Direccion Lluvia 1Hora(mm) Lluvia 24H(mm) LLuvia Total(mm)
2017-Aug-16 01:02:00 1014.400 16.9 81 13.6       1.03 1439.00
2017-Aug-16 02:01:59 1014.600 16.2 83 13.3       1.03 1439.00
2017-Aug-16 03:01:09 1014.100 16.3 84 13.6       1.03 1439.00
2017-Aug-16 04:01:08 1013.900 15.7 84 13.0       1.03 1439.00
2017-Aug-16 05:01:09 1014.100 16.1 84 13.4       1.03 1439.00
2017-Aug-16 06:01:09 1013.900 16.1 83 13.2       1.03 1439.00
2017-Aug-16 07:01:51 1014.200 15.6 84 12.9       1.03 1439.00
2017-Aug-16 08:01:45 1014.600 15.5 83 12.6       1.03 1439.00
2017-Aug-16 09:01:45 1014.400 18.9 78 15.0       1.03 1439.00
2017-Aug-16 10:01:45 1014.400 24.9 60 16.6       1.03 1439.00
2017-Aug-16 11:01:41 1014.300 31.3 41 16.5       1.03 1439.00
2017-Aug-16 12:01:39 1014.200 35.1 30 15.0       1.03 1439.00
2017-Aug-16 13:01:31 1013.700 35.9 25 12.6       1.03 1439.00
2017-Aug-16 14:01:34 1013.300 36.0 22 10.9       1.03 1439.00
2017-Aug-16 15:01:30 1012.900 37.2 22 10.6       1.03 1439.00
2017-Aug-16 16:01:32 1012.700 36.9 24 12.8       1.03 1439.00
2017-Aug-16 17:01:31 1012.600 33.9 29 12.9       0.51 1439.00
2017-Aug-16 18:01:32 1012.700 33.4 33 14.8 1.4 S     1439.00
2017-Aug-16 19:01:40 1012.700 31.8 41 16.9         1439.00
2017-Aug-16 20:01:34 1013.000 29.7 48 17.5         1439.00
2017-Aug-16 21:01:49 1013.400 26.9 54 16.8         1439.00
2017-Aug-16 22:01:22 1014.100 24.1 60 15.9         1439.00
2017-Aug-16 23:01:49 1014.600 21.6 64 14.5         1439.00

Temperatura Máxima:37°    Temperatura Mínima:15°
Presión Máxima:1014.600 Hpa    Presión Mínima:1012.600 Hpa


Volver